Time;durP1;ratioP1;P1;durP2;ratioP2;P2;SDS_P1;SDS_P2;PMS_P1;PMS_P2;Temp;Humidity;BMP_temperature;BMP_pressure;BME280_temperature;BME280_humidity;BME280_pressure;Samples;Min_cycle;Max_cycle;Signal;HPM_P1;HPM_P2
2022/05/22 00:02:22;;;;;;;7.17;6.30;;;17.00;99.90;;;;;;5051334;28;20477;-44
2022/05/22 00:07:23;;;;;;;5.70;5.13;;;17.10;99.90;;;;;;5125249;22;20515;-45
2022/05/22 00:09:50;;;;;;;7.17;4.87;;;17.30;99.90;;;;;;5071019;28;20472;-45
2022/05/22 00:12:17;;;;;;;8.07;6.00;;;17.40;99.90;;;;;;5071912;28;20519;-48
2022/05/22 00:14:45;;;;;;;7.07;5.70;;;17.50;99.90;;;;;;5071853;28;20436;-45
2022/05/22 00:17:13;;;;;;;6.67;5.97;;;17.20;99.90;;;;;;5071738;28;20460;-45
2022/05/22 00:19:40;;;;;;;6.17;5.57;;;17.20;99.90;;;;;;5071308;28;20439;-46
2022/05/22 00:22:08;;;;;;;6.03;5.43;;;17.40;99.90;;;;;;5071497;28;20891;-45
2022/05/22 00:24:35;;;;;;;5.60;5.03;;;17.50;99.90;;;;;;5071666;28;20436;-45
2022/05/22 00:27:02;;;;;;;6.93;6.23;;;17.50;99.90;;;;;;5071451;28;20464;-45
2022/05/22 00:29:30;;;;;;;7.70;6.57;;;17.40;99.90;;;;;;5071284;28;20446;-44
2022/05/22 00:31:59;;;;;;;6.30;5.70;;;17.40;99.90;;;;;;5071647;28;20591;-45
2022/05/22 00:34:26;;;;;;;5.77;5.17;;;17.50;99.90;;;;;;5071494;28;20814;-44
2022/05/22 00:36:53;;;;;;;7.83;6.20;;;17.50;99.90;;;;;;5071421;28;20496;-45
2022/05/22 00:39:20;;;;;;;7.10;5.60;;;17.50;99.90;;;;;;5071132;28;20469;-44
2022/05/22 00:41:52;;;;;;;11.93;7.00;;;17.30;99.90;;;;;;5071294;28;21081;-44
2022/05/22 00:44:20;;;;;;;6.40;5.20;;;17.40;99.90;;;;;;5071394;28;20464;-46
2022/05/22 00:46:47;;;;;;;6.57;5.87;;;17.40;99.90;;;;;;5071246;28;20457;-47
2022/05/22 00:49:21;;;;;;;5.87;5.37;;;17.40;99.90;;;;;;5071126;28;20441;-44
2022/05/22 00:51:52;;;;;;;6.73;5.17;;;17.40;99.90;;;;;;5071346;28;20440;-45
2022/05/22 00:54:23;;;;;;;6.80;6.10;;;17.50;99.90;;;;;;5071687;28;20443;-44
2022/05/22 00:56:56;;;;;;;5.97;5.30;;;17.40;99.90;;;;;;5071366;28;20461;-45
2022/05/22 00:59:33;;;;;;;9.37;6.90;;;17.40;99.90;;;;;;5070973;28;20510;-44
2022/05/22 01:02:02;;;;;;;6.23;5.30;;;17.40;99.90;;;;;;5071282;28;20567;-45
2022/05/22 01:04:34;;;;;;;5.83;5.30;;;17.50;99.90;;;;;;5070969;28;20855;-44
2022/05/22 01:07:02;;;;;;;8.93;5.90;;;17.40;99.90;;;;;;5071080;28;20568;-45
2022/05/22 01:09:29;;;;;;;6.20;4.90;;;17.40;99.90;;;;;;5070914;28;20482;-45
2022/05/22 01:12:03;;;;;;;5.93;5.10;;;17.30;99.90;;;;;;5071931;28;20852;-44
2022/05/22 01:14:31;;;;;;;6.43;5.83;;;17.40;99.90;;;;;;5075045;28;20437;-45
2022/05/22 01:17:02;;;;;;;7.43;6.50;;;17.40;99.90;;;;;;5074814;28;20499;-44
2022/05/22 01:19:31;;;;;;;5.60;5.00;;;17.40;99.90;;;;;;5075024;28;20444;-45
2022/05/22 01:22:03;;;;;;;5.77;5.17;;;17.40;99.90;;;;;;5074779;28;20563;-44
2022/05/22 01:24:30;;;;;;;8.37;5.60;;;17.40;99.90;;;;;;5074888;28;20487;-46
2022/05/22 01:27:00;;;;;;;6.10;5.50;;;17.50;99.90;;;;;;5074795;28;20460;-44
2022/05/22 01:29:28;;;;;;;7.83;5.30;;;17.40;99.90;;;;;;5074780;28;20444;-45
2022/05/22 01:31:55;;;;;;;6.17;5.57;;;17.20;99.90;;;;;;5075101;28;20491;-45
2022/05/22 01:34:22;;;;;;;8.70;5.67;;;16.90;99.90;;;;;;5074877;28;20479;-44
2022/05/22 01:36:49;;;;;;;10.73;6.57;;;17.00;99.90;;;;;;5074948;28;20541;-45
2022/05/22 01:39:17;;;;;;;5.73;5.13;;;17.10;99.90;;;;;;5074235;28;20440;-45
2022/05/22 01:41:44;;;;;;;5.73;5.13;;;17.10;99.90;;;;;;5074806;28;20518;-44
2022/05/22 01:44:11;;;;;;;6.60;5.90;;;17.10;99.90;;;;;;5074573;28;20497;-46
2022/05/22 01:46:38;;;;;;;6.77;5.20;;;17.10;99.90;;;;;;5074492;28;20539;-45
2022/05/22 01:49:05;;;;;;;7.13;6.47;;;17.10;99.90;;;;;;5074313;28;20440;-44
2022/05/22 01:51:36;;;;;;;5.97;5.27;;;16.80;99.90;;;;;;5074683;28;20784;-44
2022/05/22 01:54:04;;;;;;;7.00;6.30;;;16.60;99.90;;;;;;5074785;28;20504;-44
2022/05/22 01:56:33;;;;;;;7.03;5.63;;;16.70;99.90;;;;;;5074512;28;20529;-45
2022/05/22 01:59:01;;;;;;;7.43;5.37;;;16.80;99.90;;;;;;5074137;28;20476;-44
2022/05/22 02:01:28;;;;;;;7.03;5.80;;;16.80;99.90;;;;;;5074160;28;20851;-46
2022/05/22 02:03:55;;;;;;;6.90;5.87;;;16.80;99.90;;;;;;5074195;28;20475;-44
2022/05/22 02:06:22;;;;;;;7.83;5.50;;;16.60;99.90;;;;;;5073807;28;20476;-44
2022/05/22 02:08:48;;;;;;;6.50;5.90;;;16.60;99.90;;;;;;5074089;28;20947;-45
2022/05/22 02:11:15;;;;;;;6.73;6.07;;;16.20;99.90;;;;;;5074121;28;20472;-45
2022/05/22 02:13:44;;;;;;;8.30;6.37;;;16.00;99.90;;;;;;5074201;28;20444;-44
2022/05/22 02:16:12;;;;;;;6.70;5.73;;;16.10;99.90;;;;;;5074056;28;20513;-45
2022/05/22 02:18:39;;;;;;;9.27;6.23;;;16.30;99.90;;;;;;5073926;28;20440;-45
2022/05/22 02:21:06;;;;;;;9.87;6.50;;;16.20;99.90;;;;;;5073765;28;20445;-45
2022/05/22 02:23:34;;;;;;;7.03;5.40;;;16.00;99.90;;;;;;5073381;28;20476;-44
2022/05/22 02:26:02;;;;;;;7.13;5.90;;;15.90;99.90;;;;;;5073789;28;20551;-46
2022/05/22 02:28:31;;;;;;;7.00;5.60;;;16.10;99.90;;;;;;5073489;28;20437;-44
2022/05/22 02:31:01;;;;;;;6.77;5.93;;;16.20;99.90;;;;;;5073542;28;21019;-47
2022/05/22 02:33:28;;;;;;;6.30;5.70;;;16.40;99.90;;;;;;5074036;28;20803;-45
2022/05/22 02:35:56;;;;;;;6.40;5.80;;;16.50;99.90;;;;;;5073679;28;20469;-44
2022/05/22 02:38:23;;;;;;;6.67;5.80;;;16.60;99.90;;;;;;5073683;28;20956;-45
2022/05/22 02:40:50;;;;;;;7.37;6.67;;;16.70;99.90;;;;;;5073340;28;20472;-46
2022/05/22 02:43:17;;;;;;;6.40;5.80;;;16.70;99.90;;;;;;5073343;28;20563;-45
2022/05/22 02:45:44;;;;;;;9.70;7.47;;;16.50;99.90;;;;;;5073482;28;20521;-44
2022/05/22 02:48:13;;;;;;;7.37;6.60;;;16.20;99.90;;;;;;5073663;28;20815;-47
2022/05/22 02:50:41;;;;;;;6.23;5.63;;;15.80;99.90;;;;;;5073306;28;20479;-44
2022/05/22 02:53:09;;;;;;;6.30;5.73;;;15.70;99.90;;;;;;5073396;28;20436;-45
2022/05/22 02:55:36;;;;;;;7.43;6.20;;;15.80;99.90;;;;;;5073269;28;20492;-45
2022/05/22 02:58:03;;;;;;;8.87;6.83;;;15.90;99.90;;;;;;5072988;28;21001;-44
2022/05/22 03:00:31;;;;;;;6.87;6.27;;;15.90;99.90;;;;;;5073303;28;20481;-45
2022/05/22 03:02:59;;;;;;;7.17;6.10;;;16.00;99.90;;;;;;5073035;28;20522;-42
2022/05/22 03:06:37;;;;;;;6.37;5.37;;;16.10;99.90;;;;;;5072910;28;21054;-44
2022/05/22 03:08:15;;;;;;;8.87;5.60;;;16.20;99.90;;;;;;5072698;28;20933;-42
2022/05/22 03:10:44;;;;;;;8.20;6.77;;;16.20;99.90;;;;;;5072619;28;20472;-47
2022/05/22 03:13:11;;;;;;;7.37;6.53;;;15.70;99.90;;;;;;5073037;28;20436;-43
2022/05/22 03:15:38;;;;;;;8.17;7.37;;;15.70;99.90;;;;;;5073046;28;20457;-45
2022/05/22 03:18:06;;;;;;;6.70;6.00;;;15.90;99.90;;;;;;5072742;28;20519;-43
2022/05/22 03:20:34;;;;;;;7.33;6.63;;;15.80;99.90;;;;;;5072689;28;20501;-45
2022/05/22 03:23:01;;;;;;;9.03;8.13;;;15.80;99.90;;;;;;5072462;28;20508;-44
2022/05/22 03:25:28;;;;;;;11.03;8.23;;;15.90;99.90;;;;;;5072430;28;20490;-42
2022/05/22 03:27:55;;;;;;;9.37;6.70;;;16.00;99.90;;;;;;5072781;28;20497;-46
2022/05/22 03:30:22;;;;;;;7.30;6.10;;;16.10;99.90;;;;;;5072507;28;20472;-42
2022/05/22 03:32:49;;;;;;;8.07;6.60;;;16.00;99.90;;;;;;5072261;28;20937;-42
2022/05/22 03:35:16;;;;;;;8.37;7.53;;;15.60;99.90;;;;;;5071494;28;20494;-42
2022/05/22 03:37:44;;;;;;;10.03;7.37;;;15.40;99.90;;;;;;5072356;28;20479;-42
2022/05/22 03:40:14;;;;;;;9.23;6.57;;;15.10;99.90;;;;;;5071928;28;20481;-42
2022/05/22 03:42:41;;;;;;;8.03;7.33;;;14.90;99.90;;;;;;5072254;28;20546;-42
2022/05/22 03:45:10;;;;;;;10.30;6.50;;;14.80;99.90;;;;;;5072140;28;20582;-43
2022/05/22 03:47:38;;;;;;;10.53;8.20;;;14.90;99.90;;;;;;5072051;28;21046;-44
2022/05/22 03:50:07;;;;;;;7.20;6.60;;;14.90;99.90;;;;;;5072258;28;20455;-42
2022/05/22 03:52:35;;;;;;;8.10;7.23;;;15.20;99.90;;;;;;5072133;28;20441;-42
2022/05/22 03:55:05;;;;;;;10.33;7.10;;;15.40;99.90;;;;;;5072198;28;20862;-43
2022/05/22 03:57:31;;;;;;;8.33;7.57;;;15.60;99.90;;;;;;5072033;28;20477;-43
2022/05/22 03:59:58;;;;;;;7.50;6.80;;;15.70;99.90;;;;;;5071842;28;20468;-42
2022/05/22 04:02:25;;;;;;;7.90;7.07;;;15.80;99.90;;;;;;5072297;28;20507;-43
2022/05/22 04:04:52;;;;;;;8.50;7.63;;;15.80;99.90;;;;;;5072155;28;20476;-42
2022/05/22 04:07:19;;;;;;;11.53;7.27;;;15.50;99.90;;;;;;5071692;28;20526;-42
2022/05/22 04:09:46;;;;;;;8.50;7.27;;;15.20;99.90;;;;;;5072016;28;20448;-42
2022/05/22 04:12:15;;;;;;;11.20;6.97;;;15.20;99.90;;;;;;5071811;28;20523;-42
2022/05/22 04:14:42;;;;;;;8.53;7.83;;;15.40;99.90;;;;;;5071743;28;20440;-43
2022/05/22 04:17:10;;;;;;;9.83;7.20;;;15.60;99.90;;;;;;5071812;28;20533;-42
2022/05/22 04:19:38;;;;;;;8.50;7.33;;;15.80;99.90;;;;;;5071686;28;20804;-42
2022/05/22 04:22:05;;;;;;;8.10;7.40;;;16.00;99.90;;;;;;5071428;28;20448;-42
2022/05/22 04:27:18;;;;;;;8.47;7.17;;;16.10;99.90;;;;;;5071739;28;20521;-42
2022/05/22 04:29:45;;;;;;;7.60;6.80;;;16.10;99.90;;;;;;5071122;28;20468;-43
2022/05/22 04:32:12;;;;;;;6.93;6.27;;;16.20;99.90;;;;;;5071685;28;20479;-42
2022/05/22 04:34:39;;;;;;;11.00;6.60;;;16.30;99.90;;;;;;5071584;28;20975;-44
2022/05/22 04:37:06;;;;;;;8.80;6.87;;;16.00;99.90;;;;;;5071490;28;20464;-42
2022/05/22 04:39:33;;;;;;;7.83;6.83;;;15.70;99.90;;;;;;5071314;28;20781;-43
2022/05/22 04:42:00;;;;;;;11.37;7.40;;;15.80;99.90;;;;;;5071449;28;20440;-42
2022/05/22 04:44:29;;;;;;;6.90;5.97;;;15.90;99.90;;;;;;5071335;28;21001;-42
2022/05/22 04:46:56;;;;;;;8.90;7.70;;;15.80;99.90;;;;;;5071040;28;20459;-46
2022/05/22 04:49:22;;;;;;;7.40;6.70;;;15.90;99.90;;;;;;5071354;28;20476;-42
2022/05/22 04:51:49;;;;;;;8.03;6.67;;;16.00;99.90;;;;;;5071419;28;20531;-42
2022/05/22 04:54:16;;;;;;;9.70;7.47;;;16.10;99.90;;;;;;5071448;28;20437;-43
2022/05/22 04:56:44;;;;;;;9.63;7.13;;;16.20;99.90;;;;;;5071469;28;20465;-42
2022/05/22 04:59:11;;;;;;;7.70;6.90;;;16.30;99.90;;;;;;5071175;28;20493;-45
2022/05/22 05:01:39;;;;;;;21.73;8.00;;;16.30;99.90;;;;;;5071358;28;20487;-44
2022/05/22 05:04:06;;;;;;;7.93;7.13;;;16.30;99.90;;;;;;5071098;28;20502;-46
2022/05/22 05:06:33;;;;;;;8.77;6.83;;;16.20;99.90;;;;;;5071453;28;20832;-42
2022/05/22 05:09:00;;;;;;;8.97;7.20;;;16.10;99.90;;;;;;5071090;28;20447;-43
2022/05/22 05:11:27;;;;;;;12.20;8.40;;;16.10;99.90;;;;;;5071286;28;20440;-39
2022/05/22 05:13:54;;;;;;;10.13;8.00;;;16.10;99.90;;;;;;5071308;28;20441;-42
2022/05/22 05:16:22;;;;;;;8.63;7.60;;;16.00;99.90;;;;;;5071037;28;20490;-42
2022/05/22 05:18:50;;;;;;;7.77;6.77;;;16.10;99.90;;;;;;5070889;28;20949;-42
2022/05/22 05:21:18;;;;;;;11.03;7.47;;;16.10;99.90;;;;;;5071017;28;20440;-42
2022/05/22 05:23:45;;;;;;;8.70;7.50;;;16.10;99.90;;;;;;5071067;28;20563;-44
2022/05/22 05:26:12;;;;;;;7.87;7.13;;;16.00;99.90;;;;;;5070689;28;20503;-46
2022/05/22 05:28:39;;;;;;;7.97;7.17;;;16.10;99.90;;;;;;5070998;28;20509;-44
2022/05/22 05:31:06;;;;;;;8.53;7.53;;;16.10;99.90;;;;;;5071229;28;20468;-43
2022/05/22 05:33:34;;;;;;;11.70;7.83;;;16.10;99.90;;;;;;5070837;28;20494;-43
2022/05/22 05:36:03;;;;;;;8.57;7.70;;;16.30;99.90;;;;;;5070657;28;20488;-43
2022/05/22 05:38:30;;;;;;;8.10;6.37;;;16.30;99.90;;;;;;5070881;28;20506;-42
2022/05/22 05:40:58;;;;;;;8.83;7.23;;;16.40;99.90;;;;;;5070810;28;20444;-43
2022/05/22 05:43:25;;;;;;;7.60;6.80;;;16.50;99.90;;;;;;5070719;28;20499;-43
2022/05/22 05:45:51;;;;;;;8.70;7.80;;;16.50;99.90;;;;;;5070459;28;20487;-45
2022/05/22 05:48:19;;;;;;;9.80;7.50;;;16.50;99.90;;;;;;5071027;28;20561;-43
2022/05/22 05:50:45;;;;;;;8.70;7.77;;;16.50;99.90;;;;;;5070663;28;20445;-42
2022/05/22 05:53:14;;;;;;;9.60;8.67;;;16.50;99.90;;;;;;5070783;28;20464;-42
2022/05/22 05:55:41;;;;;;;9.27;7.70;;;16.50;99.90;;;;;;5070815;28;20548;-44
2022/05/22 05:58:08;;;;;;;9.43;8.43;;;16.40;99.90;;;;;;5070800;28;20519;-42
2022/05/22 06:00:35;;;;;;;9.37;8.47;;;16.10;99.90;;;;;;5074093;28;20815;-43
2022/05/22 06:03:02;;;;;;;10.40;7.93;;;16.00;99.90;;;;;;5074325;28;20526;-42
2022/05/22 06:07:57;;;;;;;8.60;7.80;;;16.30;99.90;;;;;;5110025;22;20500;-44
2022/05/22 06:10:25;;;;;;;9.27;8.37;;;16.40;99.90;;;;;;5053606;28;20487;-44
2022/05/22 06:12:52;;;;;;;11.00;8.00;;;16.70;99.90;;;;;;5054040;28;20869;-44
2022/05/22 06:15:19;;;;;;;7.50;6.67;;;17.10;99.90;;;;;;5054052;28;20471;-44
2022/05/22 06:17:47;;;;;;;11.03;7.93;;;17.30;99.90;;;;;;5053900;28;20496;-44
2022/05/22 06:20:18;;;;;;;7.87;7.17;;;17.50;99.90;;;;;;5053681;28;20472;-44
2022/05/22 06:22:46;;;;;;;7.07;6.37;;;17.50;99.90;;;;;;5053995;28;22359;-44
2022/05/22 06:25:15;;;;;;;7.20;6.50;;;17.50;99.90;;;;;;5053555;28;20444;-44
2022/05/22 06:27:44;;;;;;;8.70;7.20;;;17.50;99.90;;;;;;5053890;28;20560;-44
2022/05/22 06:30:13;;;;;;;11.63;6.97;;;17.50;99.90;;;;;;5053404;28;20534;-44
2022/05/22 06:32:42;;;;;;;10.83;6.70;;;17.50;99.90;;;;;;5053877;28;20441;-44
2022/05/22 06:35:10;;;;;;;7.43;6.60;;;17.60;99.90;;;;;;5053620;28;20524;-44
2022/05/22 06:37:37;;;;;;;8.10;7.30;;;17.70;99.90;;;;;;5053687;28;20519;-44
2022/05/22 06:40:05;;;;;;;7.57;6.73;;;17.90;99.90;;;;;;5053307;28;20464;-44
2022/05/22 06:42:34;;;;;;;7.60;6.90;;;18.10;99.90;;;;;;5053459;28;20448;-44
2022/05/22 06:45:06;;;;;;;7.43;6.77;;;18.10;99.90;;;;;;5053778;28;20445;-44
2022/05/22 06:47:34;;;;;;;7.50;6.70;;;18.10;99.90;;;;;;5053236;28;20516;-43
2022/05/22 06:50:04;;;;;;;7.40;6.70;;;18.20;99.90;;;;;;5053537;28;20540;-44
2022/05/22 06:52:32;;;;;;;7.50;6.83;;;18.00;99.90;;;;;;5053606;28;20879;-44
2022/05/22 06:54:58;;;;;;;10.03;6.57;;;18.00;99.90;;;;;;5053303;28;20918;-44
2022/05/22 06:57:25;;;;;;;7.27;6.57;;;18.00;99.90;;;;;;5053080;28;20465;-44
2022/05/22 06:59:55;;;;;;;7.13;6.53;;;17.90;99.90;;;;;;5052865;28;20437;-44
2022/05/22 07:02:27;;;;;;;8.03;7.23;;;18.00;99.90;;;;;;5053093;28;20537;-44
2022/05/22 07:04:54;;;;;;;8.03;7.33;;;18.10;99.90;;;;;;5053020;28;20479;-44
2022/05/22 07:07:21;;;;;;;9.10;6.63;;;18.20;99.90;;;;;;5052917;28;20804;-44
2022/05/22 07:09:48;;;;;;;8.83;7.50;;;18.20;99.90;;;;;;5052711;28;20453;-44
2022/05/22 07:12:18;;;;;;;8.73;7.93;;;18.40;99.90;;;;;;5053021;28;20548;-44
2022/05/22 07:14:45;;;;;;;7.97;7.17;;;18.50;99.90;;;;;;5052723;28;20472;-44
2022/05/22 07:17:13;;;;;;;8.43;7.57;;;18.60;99.90;;;;;;5052928;28;20519;-44
2022/05/22 07:19:43;;;;;;;7.10;6.50;;;18.70;99.90;;;;;;5052636;28;20445;-44
2022/05/22 07:22:11;;;;;;;7.93;6.27;;;18.70;99.90;;;;;;5052867;28;20449;-44
2022/05/22 07:24:38;;;;;;;7.30;6.60;;;18.80;99.90;;;;;;5052329;28;20560;-44
2022/05/22 07:27:06;;;;;;;9.00;8.10;;;19.10;99.90;;;;;;5052848;28;20460;-44
2022/05/22 07:29:33;;;;;;;8.07;7.27;;;19.30;99.90;;;;;;5052459;28;20945;-44
2022/05/22 07:32:01;;;;;;;7.43;6.67;;;19.50;99.90;;;;;;5052802;28;20476;-44
2022/05/22 07:34:28;;;;;;;8.83;6.97;;;19.40;99.90;;;;;;5052549;28;20441;-44
2022/05/22 07:36:57;;;;;;;10.83;7.50;;;19.10;99.90;;;;;;5052411;28;20489;-44
2022/05/22 07:39:24;;;;;;;8.63;7.83;;;19.20;99.90;;;;;;5052073;28;20521;-44
2022/05/22 07:41:52;;;;;;;7.10;6.40;;;19.00;99.90;;;;;;5052473;28;20445;-44
2022/05/22 07:44:19;;;;;;;8.43;7.53;;;19.10;99.90;;;;;;5052314;28;20513;-44
2022/05/22 07:46:46;;;;;;;7.83;7.00;;;19.30;99.90;;;;;;5052326;28;20544;-44
2022/05/22 07:50:16;;;;;;;7.90;7.20;;;19.70;99.90;;;;;;5052224;28;20442;-44
2022/05/22 07:52:05;;;;;;;14.13;7.50;;;20.00;99.90;;;;;;5051993;28;20444;-45
2022/05/22 07:54:35;;;;;;;8.47;7.50;;;20.30;99.90;;;;;;5052393;28;20492;-45
2022/05/22 07:57:02;;;;;;;7.73;6.47;;;19.80;99.90;;;;;;5051882;28;20464;-44
2022/05/22 07:59:29;;;;;;;7.50;6.80;;;19.20;99.90;;;;;;5051852;28;20520;-44
2022/05/22 08:01:56;;;;;;;8.60;7.90;;;19.20;99.90;;;;;;5052113;28;20529;-44
2022/05/22 08:04:23;;;;;;;8.40;7.60;;;19.30;99.90;;;;;;5051808;28;20989;-44
2022/05/22 08:06:49;;;;;;;9.07;8.27;;;19.40;99.90;;;;;;5051839;28;20564;-44
2022/05/22 08:09:18;;;;;;;8.53;7.83;;;19.50;99.90;;;;;;5051802;28;21008;-44
2022/05/22 08:11:45;;;;;;;8.80;7.90;;;19.60;99.90;;;;;;5051790;28;20473;-44
2022/05/22 08:14:13;;;;;;;8.70;7.90;;;19.80;99.90;;;;;;5051903;28;20468;-44
2022/05/22 08:16:41;;;;;;;7.30;6.60;;;19.70;99.90;;;;;;5051673;28;20457;-44
2022/05/22 08:19:08;;;;;;;8.57;7.03;;;19.50;99.90;;;;;;5051523;28;20442;-44
2022/05/22 08:21:35;;;;;;;8.87;8.00;;;19.70;99.90;;;;;;5051413;28;20438;-44
2022/05/22 08:24:02;;;;;;;8.07;7.33;;;19.80;99.90;;;;;;5051778;28;20509;-44
2022/05/22 08:26:31;;;;;;;8.33;7.20;;;20.00;99.90;;;;;;5051560;28;21031;-44
2022/05/22 08:28:58;;;;;;;7.87;7.07;;;20.20;99.90;;;;;;5051217;28;20911;-44
2022/05/22 08:31:25;;;;;;;7.90;7.10;;;19.90;99.90;;;;;;5051727;28;20525;-44
2022/05/22 08:33:52;;;;;;;8.63;7.53;;;20.00;99.90;;;;;;5051480;28;20437;-44
2022/05/22 08:36:19;;;;;;;10.90;8.60;;;20.00;99.90;;;;;;5051949;28;20461;-44
2022/05/22 08:38:45;;;;;;;8.80;6.67;;;19.80;99.90;;;;;;5051337;28;20503;-44
2022/05/22 08:41:19;;;;;;;8.40;7.70;;;19.80;99.90;;;;;;5051262;28;20514;-44
2022/05/22 08:43:53;;;;;;;8.20;7.40;;;19.70;99.90;;;;;;5051315;28;21033;-44
2022/05/22 08:46:23;;;;;;;7.83;6.97;;;19.80;99.90;;;;;;5051328;28;20644;-44
2022/05/22 08:48:56;;;;;;;9.13;6.60;;;20.00;99.90;;;;;;5051064;28;20532;-44
2022/05/22 08:51:32;;;;;;;6.50;6.00;;;20.10;99.90;;;;;;5051338;28;20932;-44
2022/05/22 08:54:12;;;;;;;7.83;7.03;;;20.00;99.90;;;;;;5051062;28;21001;-44
2022/05/22 08:59:30;;;;;;;6.77;5.97;;;20.40;99.90;;;;;;5051541;28;20417;-44
2022/05/22 09:02:03;;;;;;;7.03;6.30;;;20.40;99.90;;;;;;5051484;28;20457;-44
2022/05/22 09:04:35;;;;;;;6.20;5.60;;;20.40;99.90;;;;;;5051070;28;20508;-44
2022/05/22 09:07:18;;;;;;;6.87;6.17;;;20.40;99.90;;;;;;5050972;28;20473;-44
2022/05/22 09:09:49;;;;;;;6.97;5.40;;;20.60;99.90;;;;;;5051274;28;20477;-44
2022/05/22 09:12:36;;;;;;;8.20;5.53;;;20.50;99.90;;;;;;5051284;28;20445;-44
2022/05/22 09:15:09;;;;;;;7.90;7.10;;;20.40;99.90;;;;;;5051214;28;20860;-44
2022/05/22 09:17:40;;;;;;;9.30;6.67;;;20.30;99.90;;;;;;5051189;28;20493;-44
2022/05/22 09:20:16;;;;;;;6.53;5.83;;;20.40;99.90;;;;;;5050874;28;20437;-44
2022/05/22 09:22:51;;;;;;;7.00;5.97;;;20.40;99.90;;;;;;5050949;28;20540;-44
2022/05/22 09:25:25;;;;;;;10.87;6.97;;;20.50;99.90;;;;;;5050547;28;20512;-44
2022/05/22 09:28:01;;;;;;;6.87;6.17;;;20.50;99.90;;;;;;5051258;28;20492;-44
2022/05/22 09:30:37;;;;;;;7.10;6.50;;;20.50;99.90;;;;;;5051088;28;20476;-44
2022/05/22 09:33:13;;;;;;;8.23;6.50;;;20.50;99.90;;;;;;5050675;28;20864;-44
2022/05/22 09:35:51;;;;;;;8.00;6.70;;;20.70;99.90;;;;;;5054650;28;20441;-44
2022/05/22 09:38:30;;;;;;;6.03;5.43;;;20.50;99.90;;;;;;5054821;28;20445;-44
2022/05/22 09:41:08;;;;;;;5.60;5.10;;;20.60;99.90;;;;;;5054518;28;20933;-44
2022/05/22 09:43:59;;;;;;;5.27;4.67;;;20.60;99.90;;;;;;5055199;28;20472;-45
2022/05/22 09:46:55;;;;;;;7.50;6.13;;;20.70;99.90;;;;;;5054423;28;20548;-44
2022/05/22 09:49:39;;;;;;;5.13;4.63;;;20.70;99.90;;;;;;5054476;28;20473;-44
2022/05/22 09:52:15;;;;;;;6.20;4.80;;;20.40;99.90;;;;;;5054701;28;20465;-44
2022/05/22 09:55:02;;;;;;;5.93;5.33;;;20.40;99.90;;;;;;5054647;28;20455;-44
2022/05/22 09:57:46;;;;;;;5.27;4.77;;;20.60;99.90;;;;;;5054397;28;20901;-44
2022/05/22 10:00:16;;;;;;;5.97;5.33;;;20.70;99.90;;;;;;5054181;28;20873;-44
2022/05/22 10:02:58;;;;;;;5.30;4.80;;;20.60;99.90;;;;;;5054448;28;20498;-44
2022/05/22 10:05:36;;;;;;;5.17;4.67;;;20.70;99.90;;;;;;5054095;28;20868;-44
2022/05/22 10:08:12;;;;;;;5.50;4.73;;;20.90;99.90;;;;;;5054182;28;20890;-44
2022/05/22 10:10:47;;;;;;;5.70;5.20;;;21.00;99.90;;;;;;5053766;28;20965;-44
2022/05/22 10:13:26;;;;;;;6.20;5.23;;;21.00;99.90;;;;;;5054341;28;20490;-45
2022/05/22 10:16:09;;;;;;;5.97;5.37;;;21.00;99.90;;;;;;5054171;28;20461;-44
2022/05/22 10:18:50;;;;;;;6.80;4.90;;;21.10;99.90;;;;;;5054153;28;20494;-45
2022/05/22 10:21:24;;;;;;;5.90;4.90;;;21.30;99.90;;;;;;5054392;28;20469;-44
2022/05/22 10:24:19;;;;;;;5.00;4.50;;;21.30;99.90;;;;;;5053880;28;20484;-44
2022/05/22 10:27:14;;;;;;;4.97;4.50;;;21.40;99.90;;;;;;5053464;28;20946;-44
2022/05/22 10:29:46;;;;;;;6.10;5.60;;;21.40;99.90;;;;;;5053627;28;20442;-44
2022/05/22 10:32:18;;;;;;;6.10;5.20;;;21.40;99.90;;;;;;5053807;28;20477;-44
2022/05/22 10:34:52;;;;;;;5.20;4.73;;;21.50;99.90;;;;;;5053784;28;20524;-44
2022/05/22 10:37:23;;;;;;;5.40;4.90;;;21.50;99.90;;;;;;5053658;28;20867;-44
2022/05/22 10:39:50;;;;;;;5.60;4.83;;;21.40;99.90;;;;;;5053824;28;20815;-44
2022/05/22 10:45:16;;;;;;;7.10;5.20;;;21.60;99.90;;;;;;5053085;28;20469;-45
2022/05/22 10:47:43;;;;;;;6.10;5.00;;;21.50;99.90;;;;;;5053895;28;20548;-44
2022/05/22 10:50:33;;;;;;;5.20;4.73;;;21.50;99.90;;;;;;5053203;28;20934;-44
2022/05/22 10:52:59;;;;;;;5.57;5.13;;;21.60;99.90;;;;;;5050417;28;20495;-44
2022/05/22 10:55:35;;;;;;;5.53;5.10;;;21.50;99.90;;;;;;5053383;28;20468;-44
2022/05/22 10:58:04;;;;;;;8.03;7.30;;;21.60;99.90;;;;;;5053411;28;20523;-44
2022/05/22 11:00:31;;;;;;;5.23;4.63;;;21.60;99.90;;;;;;5053136;28;20762;-44
2022/05/22 11:03:11;;;;;;;4.83;4.23;;;21.50;99.90;;;;;;5053208;28;20902;-44
2022/05/22 11:05:39;;;;;;;6.77;4.33;;;21.40;99.90;;;;;;5053004;28;20567;-44
2022/05/22 11:08:06;;;;;;;5.57;5.07;;;21.50;99.90;;;;;;5053093;28;20483;-44
2022/05/22 11:10:37;;;;;;;4.80;4.40;;;21.60;99.90;;;;;;5052734;28;20954;-44
2022/05/22 11:13:07;;;;;;;4.37;3.70;;;21.60;99.90;;;;;;5053109;28;20437;-44
2022/05/22 11:15:37;;;;;;;4.00;3.70;;;21.70;99.90;;;;;;5052535;28;20466;-44
2022/05/22 11:18:06;;;;;;;4.93;4.33;;;21.80;99.90;;;;;;5053056;28;20444;-44
2022/05/22 11:20:34;;;;;;;5.40;4.07;;;21.90;99.90;;;;;;5052598;28;20634;-44
2022/05/22 11:23:11;;;;;;;4.40;4.00;;;21.90;99.90;;;;;;5052752;28;20437;-44
2022/05/22 11:25:48;;;;;;;5.63;3.97;;;22.00;99.90;;;;;;5052469;28;20484;-44
2022/05/22 11:28:39;;;;;;;4.50;4.00;;;22.00;99.90;;;;;;5052788;28;20441;-44
2022/05/22 11:31:21;;;;;;;4.63;4.17;;;22.00;99.90;;;;;;5052392;28;20524;-44
2022/05/22 11:34:05;;;;;;;5.00;4.00;;;22.00;99.90;;;;;;5052584;28;20502;-44
2022/05/22 11:36:47;;;;;;;6.43;4.40;;;22.10;99.90;;;;;;5052619;28;20489;-44
2022/05/22 11:39:32;;;;;;;7.10;4.10;;;22.20;99.90;;;;;;5052384;28;20473;-44
2022/05/22 11:42:05;;;;;;;4.50;4.03;;;22.30;99.90;;;;;;5052591;28;20445;-44
2022/05/22 11:44:48;;;;;;;4.60;4.20;;;22.40;99.90;;;;;;5052553;28;20560;-44
2022/05/22 11:47:51;;;;;;;4.40;3.93;;;22.40;99.90;;;;;;5052572;28;20890;-44
2022/05/22 11:50:31;;;;;;;4.43;4.03;;;22.40;99.90;;;;;;5052028;28;20795;-44
2022/05/22 11:53:07;;;;;;;4.30;3.90;;;22.60;99.90;;;;;;5052153;28;20528;-44
2022/05/22 11:55:49;;;;;;;5.00;3.30;;;22.70;99.90;;;;;;5052865;28;20437;-44
2022/05/22 11:58:22;;;;;;;8.47;5.10;;;22.70;99.90;;;;;;5051590;28;20437;-44
2022/05/22 12:01:13;;;;;;;4.50;4.07;;;22.80;99.90;;;;;;5051701;28;21025;-44
2022/05/22 12:04:06;;;;;;;5.67;3.83;;;22.80;99.90;;;;;;5051700;28;20442;-44
2022/05/22 12:06:55;;;;;;;3.60;3.30;;;22.80;99.90;;;;;;5112481;22;20524;-46
2022/05/22 12:09:41;;;;;;;5.20;4.13;;;22.80;99.90;;;;;;5071092;28;20920;-46
2022/05/22 12:12:19;;;;;;;4.60;4.20;;;22.90;99.90;;;;;;5072102;28;20476;-46
2022/05/22 12:15:01;;;;;;;3.80;3.50;;;22.80;99.90;;;;;;5071974;28;20786;-46
2022/05/22 12:17:33;;;;;;;3.87;3.57;;;22.80;99.90;;;;;;5071861;28;20460;-47
2022/05/22 12:20:10;;;;;;;4.90;4.10;;;22.90;99.90;;;;;;5069987;28;20531;-46
2022/05/22 12:25:29;;;;;;;6.50;3.90;;;23.00;99.90;;;;;;5070914;28;20475;-48
2022/05/22 12:28:00;;;;;;;4.30;3.90;;;23.00;99.90;;;;;;5070054;28;20989;-45
2022/05/22 12:30:33;;;;;;;5.37;4.63;;;23.10;99.90;;;;;;5069295;28;20436;-47
2022/05/22 12:33:06;;;;;;;4.47;4.03;;;23.10;99.90;;;;;;5069543;28;20508;-46
2022/05/22 12:35:33;;;;;;;4.23;3.83;;;23.10;99.90;;;;;;5070713;28;20441;-50
2022/05/22 12:38:03;;;;;;;4.70;3.90;;;23.20;99.90;;;;;;5070851;28;20500;-46
2022/05/22 12:40:44;;;;;;;5.70;3.60;;;23.20;99.90;;;;;;5069770;28;20470;-47
2022/05/22 12:43:15;;;;;;;5.70;4.33;;;23.30;99.90;;;;;;5070494;28;20444;-46
2022/05/22 12:45:42;;;;;;;5.53;3.70;;;23.30;99.90;;;;;;5070172;28;20512;-47
2022/05/22 12:48:15;;;;;;;4.07;3.70;;;23.40;99.90;;;;;;5070079;28;20517;-47
2022/05/22 12:50:48;;;;;;;4.47;3.80;;;23.40;99.90;;;;;;5069581;28;20448;-46
2022/05/22 12:53:25;;;;;;;8.90;6.00;;;23.50;99.90;;;;;;5070485;28;20432;-46
2022/05/22 12:55:52;;;;;;;4.27;3.90;;;23.50;99.90;;;;;;5071232;28;20448;-46
2022/05/22 12:58:38;;;;;;;4.67;4.27;;;23.70;99.90;;;;;;5071250;28;20492;-47
2022/05/22 13:01:24;;;;;;;4.07;3.70;;;23.70;99.90;;;;;;5071421;28;20476;-47
2022/05/22 13:03:54;;;;;;;7.50;4.67;;;23.80;99.90;;;;;;5071129;28;20448;-46
2022/05/22 13:06:24;;;;;;;5.37;4.10;;;23.80;99.90;;;;;;5071127;28;20754;-50
2022/05/22 13:08:59;;;;;;;4.77;4.33;;;23.90;99.90;;;;;;5073513;28;20471;-46
2022/05/22 13:11:40;;;;;;;5.10;4.40;;;23.90;99.90;;;;;;5075246;28;20468;-46
2022/05/22 13:14:13;;;;;;;4.47;3.50;;;23.90;99.90;;;;;;5075231;28;20440;-46
2022/05/22 13:16:47;;;;;;;5.60;4.50;;;23.90;99.90;;;;;;5075367;28;20550;-46
2022/05/22 13:19:20;;;;;;;5.57;3.90;;;24.10;99.90;;;;;;5075257;28;20452;-45
2022/05/22 13:21:47;;;;;;;5.17;4.50;;;24.00;99.90;;;;;;5075268;28;20444;-45